Impacts TAF Board
For situational awareness. Not to be used for flight planning purposes.
IDs:

KSTL - St Louis/Lambert Int, MO, US

Issued at 1514 UTC 16 Feb 2019
Updated at 1535 UTC 16 Feb 2019
Potential Impact None Slight Moderate High
Time1451Z 16/16Z 16/17Z 16/18Z 16/19Z 16/20Z 16/21Z 16/22Z 16/23Z 17/00Z 17/01Z 17/02Z 17/03Z 17/04Z>>
Type OBS PRVL PRVL PRVL PRVL PRVL PRVL PRVL PRVL PRVL PRVL PRVL PRVL PRVL
VIS 10 >6 >6 >6 >6 >6 >6 >6 >6 >6 >6 >6 >6 >6
CIG 250 -- -- -- -- -- -- -- -- 250 250 250 250 250
Cover BKN SCT SCT SCT SCT SCT SCT SCT SCT BKN BKN BKN BKN BKN
FltCat VFR VFR VFR VFR VFR VFR VFR VFR VFR VFR VFR VFR VFR VFR
WX -- -- -- -- -- -- -- -- -- -- -- -- -- --
WDir 50 70 70 70 70 70 70 70 70 90 90 90 90 90
WSpd 7 7 7 7 7 7 7 7 7 6 6 6 6 6
WGst -- -- -- -- -- -- -- -- -- -- -- -- -- --
Raw TAF
KSTL 161514Z 1615/1718 07007KT P6SM SCT250
  FM170000 09006KT P6SM BKN250
  FM170500 11007KT 4SM -SN OVC025
  FM170800 10005KT 2SM -FZDZ BR OVC009
  FM171300 10005KT 5SM BR BKN009


Raw METAR
KSTL 161451Z 05007KT 10SM BKN250 M07/M11 A3010 RMK AO2 SLP208 T10721111 50009
KSTL 161351Z 34005KT 10SM FEW085 SCT250 M08/M12 A3011 RMK AO2 SLP214 T10831117
KSTL 161251Z 01004KT 10SM FEW085 BKN250 M08/M12 A3009 RMK AO2 SLP207 T10831122

METAR Board
Radar Display
Forecast Discussion
For situational awareness. Not to be used for flight planning purposes.